createdAt,value
2022-09-10T00:01:36.381Z,99436.50
2022-09-10T00:04:10.655Z,99427.34
2022-09-10T00:06:38.849Z,99426.56
2022-09-10T00:09:07.794Z,99420.47
2022-09-10T00:11:38.570Z,99421.63
2022-09-10T00:14:09.848Z,99429.56
2022-09-10T00:16:37.632Z,99426.59
2022-09-10T00:19:06.596Z,99413.69
2022-09-10T00:21:35.645Z,99420.97
2022-09-10T00:24:05.266Z,99425.53
2022-09-10T00:26:38.294Z,99422.81
2022-09-10T00:29:09.116Z,99420.91
2022-09-10T00:31:37.581Z,99415.97
2022-09-10T00:34:06.311Z,99413.25
2022-09-10T00:36:39.980Z,99420.16
2022-09-10T00:39:16.180Z,99417.13
2022-09-10T00:41:46.819Z,99423.94
2022-09-10T00:44:39.579Z,99418.56
2022-09-10T00:47:24.215Z,99426.16
2022-09-10T00:50:05.868Z,99434.50
2022-09-10T00:52:39.436Z,99436.34
2022-09-10T00:55:09.263Z,99426.47
2022-09-10T00:57:37.668Z,99429.50
2022-09-10T01:00:12.539Z,99424.91
2022-09-10T01:02:42.407Z,99424.53
2022-09-10T01:05:11.672Z,99419.94
2022-09-10T01:07:39.364Z,99419.56
2022-09-10T01:10:24.212Z,99415.41
2022-09-10T01:13:11.989Z,99412.25
2022-09-10T01:15:42.922Z,99409.91
2022-09-10T01:18:19.237Z,99410.63
2022-09-10T01:21:02.456Z,99416.69
2022-09-10T01:24:09.399Z,99423.25
2022-09-10T01:27:13.206Z,99420.94
2022-09-10T01:30:15.911Z,99431.59
2022-09-10T01:33:14.042Z,99428.53
2022-09-10T01:35:50.856Z,99422.91
2022-09-10T01:38:26.319Z,99424.44
2022-09-10T01:40:56.118Z,99421.78
2022-09-10T01:43:26.068Z,99420.69
2022-09-10T01:46:08.387Z,99420.25
2022-09-10T01:49:02.334Z,99424.47
2022-09-10T01:52:06.403Z,99435.41
2022-09-10T01:55:06.132Z,99438.16
2022-09-10T01:57:55.407Z,99436.09
2022-09-10T02:00:27.835Z,99432.72
2022-09-10T02:03:16.267Z,99423.66
2022-09-10T02:05:50.960Z,99422.44
2022-09-10T02:08:26.557Z,99425.56
2022-09-10T02:11:03.984Z,99422.09
2022-09-10T02:13:36.512Z,99421.28
2022-09-10T02:16:34.725Z,99415.56
2022-09-10T02:19:03.972Z,99418.25
2022-09-10T02:21:32.896Z,99418.25
2022-09-10T02:24:12.742Z,99421.63
2022-09-10T02:26:44.487Z,99427.28
2022-09-10T02:29:15.892Z,99427.28
2022-09-10T02:31:45.006Z,99425.34
2022-09-10T02:34:20.153Z,99430.34
2022-09-10T02:36:49.551Z,99438.72
2022-09-10T02:39:17.183Z,99451.25
2022-09-10T02:41:48.079Z,99447.03
2022-09-10T02:44:16.233Z,99443.97
2022-09-10T02:46:44.261Z,99443.97
2022-09-10T02:49:11.890Z,99447.69
2022-09-10T02:51:42.384Z,99446.91
2022-09-10T02:54:10.076Z,99427.63
2022-09-10T02:56:37.544Z,99415.06
2022-09-10T02:59:06.428Z,99415.03
2022-09-10T03:01:34.852Z,99426.50
2022-09-10T03:04:05.817Z,99429.56
2022-09-10T03:06:33.352Z,99426.41
2022-09-10T03:09:02.142Z,99429.56
2022-09-10T03:11:29.786Z,99431.06
2022-09-10T03:13:59.121Z,99441.63
2022-09-10T03:16:27.372Z,99456.25
2022-09-10T03:18:56.045Z,99458.88
2022-09-10T03:21:27.765Z,99455.56
2022-09-10T03:24:01.242Z,99452.91
2022-09-10T03:26:30.803Z,99436.16
2022-09-10T03:28:58.595Z,99437.34
2022-09-10T03:31:31.206Z,99436.94
2022-09-10T03:33:59.774Z,99422.47
2022-09-10T03:36:31.290Z,99431.56
2022-09-10T03:38:59.987Z,99430.41
2022-09-10T03:41:31.750Z,99430.19
2022-09-10T03:43:59.805Z,99432.44
2022-09-10T03:46:28.079Z,99443.50
2022-09-10T03:48:59.633Z,99444.53
2022-09-10T03:51:28.940Z,99442.50
2022-09-10T03:53:59.746Z,99443.56
2022-09-10T03:56:30.268Z,99447.50
2022-09-10T03:58:57.833Z,99441.28
2022-09-10T04:01:28.301Z,99438.59
2022-09-10T04:03:57.128Z,99445.47
2022-09-10T04:06:27.036Z,99455.69
2022-09-10T04:08:56.018Z,99454.91
2022-09-10T04:11:27.642Z,99453.31
2022-09-10T04:13:57.614Z,99446.59
2022-09-10T04:16:27.465Z,99444.78
2022-09-10T04:18:55.465Z,99451.34
2022-09-10T04:21:24.426Z,99439.19
2022-09-10T04:24:00.843Z,99448.41
2022-09-10T04:26:29.425Z,99438.81
2022-09-10T04:28:57.094Z,99436.88
2022-09-10T04:31:24.689Z,99440.00
2022-09-10T04:33:56.331Z,99446.19
2022-09-10T04:36:27.009Z,99447.75
2022-09-10T04:38:54.774Z,99450.81
2022-09-10T04:41:22.227Z,99458.47
2022-09-10T04:43:50.030Z,99462.16
2022-09-10T04:46:17.754Z,99463.72
2022-09-10T04:48:46.040Z,99456.94
2022-09-10T04:51:18.095Z,99450.78
2022-09-10T04:53:48.332Z,99452.41
2022-09-10T04:56:16.869Z,99445.59
2022-09-10T04:58:44.846Z,99441.84
2022-09-10T05:01:14.122Z,99435.75
2022-09-10T05:03:43.758Z,99436.25
2022-09-10T05:06:12.246Z,99431.78
2022-09-10T05:08:39.918Z,99439.88
2022-09-10T05:11:08.376Z,99442.97
2022-09-10T05:13:35.935Z,99439.22
2022-09-10T05:16:04.085Z,99446.84
2022-09-10T05:18:33.991Z,99449.97
2022-09-10T05:21:01.564Z,99452.31
2022-09-10T05:23:29.660Z,99459.56
2022-09-10T05:26:00.051Z,99459.97
2022-09-10T05:28:28.453Z,99469.13
2022-09-10T05:30:55.926Z,99466.50
2022-09-10T05:33:26.649Z,99460.03
2022-09-10T05:35:54.108Z,99450.88
2022-09-10T05:38:24.884Z,99449.69
2022-09-10T05:40:52.861Z,99450.44
2022-09-10T05:43:21.409Z,99443.56
2022-09-10T05:45:52.342Z,99435.13
2022-09-10T05:48:21.337Z,99430.09
2022-09-10T05:50:49.614Z,99430.81
2022-09-10T05:53:17.435Z,99455.66
2022-09-10T05:55:48.916Z,99456.69
2022-09-10T05:58:17.219Z,99453.22
2022-09-10T06:00:44.903Z,99456.97
2022-09-10T06:03:13.829Z,99448.41
2022-09-10T06:05:55.753Z,99453.28
2022-09-10T06:08:30.510Z,99446.38
2022-09-10T06:11:02.640Z,99454.00
2022-09-10T06:13:38.074Z,99449.25
2022-09-10T06:16:07.415Z,99454.66
2022-09-10T06:18:35.137Z,99456.13
2022-09-10T06:21:18.769Z,99463.13
2022-09-10T06:23:55.230Z,99465.59
2022-09-10T06:26:25.473Z,99471.34
2022-09-10T06:28:56.925Z,99467.03
2022-09-10T06:31:25.201Z,99470.94
2022-09-10T06:33:54.155Z,99462.34
2022-09-10T06:36:24.789Z,99469.81
2022-09-10T06:38:57.782Z,99465.00
2022-09-10T06:41:27.033Z,99466.91
2022-09-10T06:44:14.765Z,99471.91
2022-09-10T06:49:36.473Z,99476.94
2022-09-10T06:52:05.401Z,99464.28
2022-09-10T06:54:33.710Z,99464.00
2022-09-10T06:57:13.845Z,99466.22
2022-09-10T06:59:41.863Z,99461.69
2022-09-10T07:02:09.925Z,99446.97
2022-09-10T07:04:37.857Z,99450.59
2022-09-10T07:07:06.022Z,99440.16
2022-09-10T07:09:33.602Z,99446.69
2022-09-10T07:12:04.930Z,99445.19
2022-09-10T07:14:36.074Z,99446.09
2022-09-10T07:17:07.104Z,99454.59
2022-09-10T07:19:37.226Z,99445.56
2022-09-10T07:22:09.806Z,99450.34
2022-09-10T07:24:39.506Z,99459.06
2022-09-10T07:27:11.175Z,99460.00
2022-09-10T07:29:41.773Z,99459.50
2022-09-10T07:32:13.886Z,99461.69
2022-09-10T07:34:43.163Z,99473.56
2022-09-10T07:37:15.596Z,99479.75
2022-09-10T07:39:43.386Z,99473.88
2022-09-10T07:42:11.734Z,99480.47
2022-09-10T07:44:43.006Z,99487.50
2022-09-10T07:47:10.587Z,99484.81
2022-09-10T07:49:39.011Z,99487.34
2022-09-10T07:52:08.029Z,99478.88
2022-09-10T07:54:46.402Z,99480.22
2022-09-10T07:57:13.993Z,99474.75
2022-09-10T07:59:41.870Z,99477.97
2022-09-10T08:02:16.061Z,99458.56
2022-09-10T08:04:49.614Z,99445.00
2022-09-10T08:07:18.328Z,99443.75
2022-09-10T08:09:46.604Z,99446.75
2022-09-10T08:12:17.779Z,99433.53
2022-09-10T08:14:47.617Z,99436.56
2022-09-10T08:17:15.985Z,99437.84
2022-09-10T08:19:45.769Z,99436.84
2022-09-10T08:22:14.294Z,99436.50
2022-09-10T08:24:53.399Z,99430.50
2022-09-10T08:27:23.725Z,99435.28
2022-09-10T08:29:54.808Z,99453.13
2022-09-10T08:32:23.243Z,99460.63
2022-09-10T08:34:56.099Z,99464.03
2022-09-10T08:37:26.250Z,99459.41
2022-09-10T08:39:55.065Z,99448.03
2022-09-10T08:42:39.236Z,99462.88
2022-09-10T08:45:14.962Z,99451.31
2022-09-10T08:47:53.517Z,99453.69
2022-09-10T08:50:29.988Z,99455.22
2022-09-10T08:53:09.567Z,99453.84
2022-09-10T08:55:44.985Z,99446.19
2022-09-10T08:58:23.479Z,99447.22
2022-09-10T09:00:58.527Z,99450.84
2022-09-10T09:03:33.650Z,99439.38
2022-09-10T09:06:05.695Z,99440.44
2022-09-10T09:08:48.623Z,99432.69
2022-09-10T09:11:50.718Z,99428.88
2022-09-10T09:15:10.368Z,99423.94
2022-09-10T09:18:00.429Z,99412.88
2022-09-10T09:20:43.740Z,99404.00
2022-09-10T09:23:30.531Z,99387.84
2022-09-10T09:26:36.347Z,99395.09
2022-09-10T09:29:18.321Z,99398.22
2022-09-10T09:31:52.743Z,99391.19
2022-09-10T09:34:33.887Z,99392.06
2022-09-10T09:37:10.339Z,99385.88
2022-09-10T09:39:43.727Z,99395.09
2022-09-10T09:42:59.481Z,99390.53
2022-09-10T09:45:44.881Z,99375.09
2022-09-10T09:48:21.106Z,99371.22
2022-09-10T09:50:54.491Z,99363.97
2022-09-10T09:53:28.826Z,99344.28
2022-09-10T09:56:01.286Z,99339.19
2022-09-10T09:58:35.175Z,99336.03
2022-09-10T10:01:05.947Z,99331.53
2022-09-10T10:03:54.592Z,99320.47
2022-09-10T10:06:34.897Z,99314.41
2022-09-10T10:09:20.293Z,99325.22
2022-09-10T10:11:54.723Z,99321.72
2022-09-10T10:14:25.761Z,99325.47
2022-09-10T10:17:00.456Z,99318.75
2022-09-10T10:19:40.320Z,99304.88
2022-09-10T10:22:19.274Z,99306.06
2022-09-10T10:24:50.124Z,99300.06
2022-09-10T10:27:32.955Z,99303.47
2022-09-10T10:30:25.388Z,99302.16
2022-09-10T10:33:03.115Z,99297.50
2022-09-10T10:36:18.567Z,99294.38
2022-09-10T10:39:36.780Z,99276.88
2022-09-10T10:42:34.365Z,99274.00
2022-09-10T10:45:42.850Z,99274.63
2022-09-10T10:48:35.405Z,99277.94
2022-09-10T10:51:21.957Z,99279.78
2022-09-10T10:54:12.892Z,99256.41
2022-09-10T10:57:01.504Z,99259.88
2022-09-10T10:59:44.805Z,99253.72
2022-09-10T11:02:16.340Z,99252.75
2022-09-10T11:04:53.776Z,99246.41
2022-09-10T11:07:32.998Z,99238.19
2022-09-10T11:10:34.654Z,99237.69
2022-09-10T11:13:11.800Z,99232.25
2022-09-10T11:16:07.899Z,99232.88
2022-09-10T11:18:51.122Z,99237.91
2022-09-10T11:21:44.848Z,99226.34
2022-09-10T11:24:27.104Z,99220.16
2022-09-10T11:27:14.446Z,99209.63
2022-09-10T11:29:57.850Z,99207.84
2022-09-10T11:32:57.168Z,99205.00
2022-09-10T11:36:00.142Z,99208.91
2022-09-10T11:39:13.564Z,99204.00
2022-09-10T11:41:43.637Z,99190.84
2022-09-10T11:44:22.817Z,99189.88
2022-09-10T11:47:16.841Z,99181.78
2022-09-10T11:50:00.844Z,99176.97
2022-09-10T11:52:31.463Z,99167.78
2022-09-10T11:54:59.864Z,99163.47
2022-09-10T11:57:59.343Z,99153.81
2022-09-10T12:00:31.285Z,99147.75
2022-09-10T12:03:59.298Z,99153.47
2022-09-10T12:07:21.851Z,99148.63
2022-09-10T12:10:05.843Z,99150.56
2022-09-10T12:12:50.346Z,99146.88
2022-09-10T12:15:26.655Z,99140.03
2022-09-10T12:18:08.236Z,99150.34
2022-09-10T12:20:50.269Z,99145.00
2022-09-10T12:23:26.345Z,99139.34
2022-09-10T12:26:29.361Z,99139.25
2022-09-10T12:29:01.547Z,99131.06
2022-09-10T12:32:25.107Z,99125.38
2022-09-10T12:39:00.226Z,99105.72
2022-09-10T12:44:36.246Z,99099.84
2022-09-10T12:47:22.500Z,99100.81
2022-09-10T12:49:57.873Z,99101.75
2022-09-10T12:52:51.111Z,99089.84
2022-09-10T12:56:02.300Z,99076.91
2022-09-10T12:59:10.841Z,99075.00
2022-09-10T13:01:48.023Z,99070.50
2022-09-10T13:04:28.891Z,99073.09
2022-09-10T13:07:23.875Z,99075.97
2022-09-10T13:10:04.886Z,99075.44
2022-09-10T13:12:36.273Z,99065.84
2022-09-10T13:15:06.136Z,99062.28
2022-09-10T13:17:48.449Z,99052.72
2022-09-10T13:20:22.510Z,99052.84
2022-09-10T13:23:04.364Z,99045.31
2022-09-10T13:25:43.254Z,99039.44
2022-09-10T13:28:33.093Z,99038.22
2022-09-10T13:31:20.027Z,99028.53
2022-09-10T13:33:52.049Z,99021.31
2022-09-10T13:36:58.381Z,99024.16
2022-09-10T13:39:29.033Z,99018.16
2022-09-10T13:42:35.494Z,99010.56
2022-09-10T13:45:41.589Z,99004.72
2022-09-10T13:48:24.525Z,99003.34
2022-09-10T13:51:11.993Z,99010.88
2022-09-10T13:53:47.157Z,99014.06
2022-09-10T13:56:23.818Z,99018.72
2022-09-10T13:59:01.220Z,99018.03
2022-09-10T14:01:55.545Z,99025.63
2022-09-10T14:04:44.250Z,99027.16
2022-09-10T14:07:26.895Z,99032.13
2022-09-10T14:10:01.002Z,99038.41
2022-09-10T14:12:32.155Z,99033.75
2022-09-10T14:15:05.280Z,99035.19
2022-09-10T14:17:43.427Z,99026.81
2022-09-10T14:20:33.034Z,99018.84
2022-09-10T14:23:18.222Z,99005.22
2022-09-10T14:25:46.840Z,98996.13
2022-09-10T14:28:27.649Z,98994.88
2022-09-10T14:31:23.237Z,98993.91
2022-09-10T14:33:51.426Z,99002.84
2022-09-10T14:36:36.100Z,99003.59
2022-09-10T14:39:25.157Z,99006.81
2022-09-10T14:42:35.144Z,99001.22
2022-09-10T14:45:04.068Z,99001.28
2022-09-10T14:47:37.238Z,98997.72
2022-09-10T14:50:28.070Z,98997.03
2022-09-10T14:52:56.666Z,98985.91
2022-09-10T14:55:27.389Z,98984.94
2022-09-10T14:57:56.800Z,98994.84
2022-09-10T15:00:26.700Z,98989.88
2022-09-10T15:02:57.524Z,98991.84
2022-09-10T15:05:25.362Z,98998.00
2022-09-10T15:07:53.021Z,98986.56
2022-09-10T15:10:20.827Z,98987.81
2022-09-10T15:12:52.290Z,98985.97
2022-09-10T15:15:22.790Z,98988.31
2022-09-10T15:17:51.329Z,98978.16
2022-09-10T15:20:19.141Z,98971.31
2022-09-10T15:22:50.890Z,98973.31
2022-09-10T15:25:56.406Z,98984.34
2022-09-10T15:28:24.237Z,98990.81
2022-09-10T15:30:52.143Z,98994.75
2022-09-10T15:33:20.133Z,99000.81
2022-09-10T15:35:50.511Z,98994.34
2022-09-10T15:38:21.647Z,98990.91
2022-09-10T15:40:51.121Z,98983.56
2022-09-10T15:43:20.229Z,98988.69
2022-09-10T15:45:49.117Z,98990.06
2022-09-10T15:48:16.779Z,98993.50
2022-09-10T15:50:45.068Z,98991.09
2022-09-10T15:53:12.744Z,98992.59
2022-09-10T15:55:40.477Z,98997.25
2022-09-10T15:58:08.165Z,99008.69
2022-09-10T16:00:37.527Z,99000.13
2022-09-10T16:03:05.452Z,98997.41
2022-09-10T16:05:38.969Z,98997.56
2022-09-10T16:08:07.094Z,98988.84
2022-09-10T16:10:38.358Z,98990.34
2022-09-10T16:13:06.593Z,98989.63
2022-09-10T16:15:36.245Z,98986.44
2022-09-10T16:18:04.107Z,98991.28
2022-09-10T16:20:32.316Z,98978.63
2022-09-10T16:23:24.885Z,98971.38
2022-09-10T16:25:57.369Z,98973.63
2022-09-10T16:28:26.101Z,98977.22
2022-09-10T16:30:53.906Z,98981.28
2022-09-10T16:33:21.540Z,98981.44
2022-09-10T16:35:49.238Z,98974.16
2022-09-10T16:38:16.851Z,98964.97
2022-09-10T16:40:48.447Z,98972.38
2022-09-10T16:43:16.180Z,98979.13
2022-09-10T16:45:53.405Z,98986.06
2022-09-10T16:48:21.123Z,98981.16
2022-09-10T16:50:48.809Z,98981.41
2022-09-10T16:53:19.422Z,98986.28
2022-09-10T16:55:47.572Z,98987.50
2022-09-10T16:58:15.270Z,98988.94
2022-09-10T17:00:45.209Z,98988.31
2022-09-10T17:03:13.367Z,98978.44
2022-09-10T17:05:41.631Z,98981.59
2022-09-10T17:08:09.310Z,98973.41
2022-09-10T17:10:36.987Z,98977.00
2022-09-10T17:13:06.840Z,98981.50
2022-09-10T17:15:36.275Z,98987.56
2022-09-10T17:18:09.180Z,98987.09
2022-09-10T17:20:38.182Z,98996.41
2022-09-10T17:23:07.047Z,98999.28
2022-09-10T17:25:37.533Z,98998.44
2022-09-10T17:28:05.753Z,99010.72
2022-09-10T17:30:33.536Z,99002.06
2022-09-10T17:33:01.208Z,99011.97
2022-09-10T17:35:29.355Z,99007.47
2022-09-10T17:37:57.042Z,99006.19
2022-09-10T17:40:26.623Z,99005.09
2022-09-10T17:42:55.886Z,99018.50
2022-09-10T17:45:23.612Z,99019.81
2022-09-10T17:47:53.539Z,99018.50
2022-09-10T17:50:21.636Z,99029.03
2022-09-10T17:52:51.470Z,99040.03
2022-09-10T17:55:19.161Z,99038.25
2022-09-10T17:57:48.815Z,99042.38
2022-09-10T18:00:16.833Z,99034.50
2022-09-10T18:02:45.767Z,99042.41
2022-09-10T18:05:13.723Z,99042.38
2022-09-10T18:07:46.455Z,99039.31
2022-09-10T18:10:16.442Z,99038.47
2022-09-10T18:12:44.308Z,99051.16
2022-09-10T18:15:12.287Z,99043.84
2022-09-10T18:17:43.320Z,99044.34
2022-09-10T18:20:14.422Z,99050.75
2022-09-10T18:22:45.087Z,99047.78
2022-09-10T18:25:19.011Z,99034.47
2022-09-10T18:27:47.685Z,99047.81
2022-09-10T18:30:16.269Z,99055.81
2022-09-10T18:32:44.368Z,99043.84
2022-09-10T18:35:13.053Z,99036.19
2022-09-10T18:37:40.864Z,99037.44
2022-09-10T18:40:09.552Z,99037.78
2022-09-10T18:42:37.838Z,99036.69
2022-09-10T18:45:06.436Z,99038.28
2022-09-10T18:47:44.635Z,99041.88
2022-09-10T18:50:14.600Z,99045.31
2022-09-10T18:52:44.239Z,99042.31
2022-09-10T18:55:18.665Z,99049.25
2022-09-10T18:57:46.630Z,99047.59
2022-09-10T19:00:16.733Z,99050.91
2022-09-10T19:02:44.897Z,99043.97
2022-09-10T19:05:15.648Z,99045.94
2022-09-10T19:07:43.463Z,99045.13
2022-09-10T19:10:11.262Z,99046.84
2022-09-10T19:12:40.101Z,99042.66
2022-09-10T19:15:10.077Z,99045.47
2022-09-10T19:17:43.816Z,99042.28
2022-09-10T19:20:11.516Z,99040.09
2022-09-10T19:22:39.577Z,99040.78
2022-09-10T19:25:12.126Z,99039.41
2022-09-10T19:27:41.254Z,99047.38
2022-09-10T19:30:09.606Z,99049.34
2022-09-10T19:32:37.239Z,99048.41
2022-09-10T19:35:05.115Z,99052.28
2022-09-10T19:37:32.672Z,99049.03
2022-09-10T19:40:01.826Z,99058.50
2022-09-10T19:42:31.805Z,99066.28
2022-09-10T19:45:01.131Z,99067.06
2022-09-10T19:47:33.163Z,99065.56
2022-09-10T19:50:02.333Z,99049.44
2022-09-10T19:52:34.739Z,99055.50
2022-09-10T19:55:03.771Z,99064.78
2022-09-10T19:57:31.396Z,99068.72
2022-09-10T19:59:58.857Z,99066.34
2022-09-10T20:02:26.917Z,99068.38
2022-09-10T20:04:54.392Z,99069.88
2022-09-10T20:07:41.836Z,99060.22
2022-09-10T20:10:10.178Z,99066.94
2022-09-10T20:12:37.814Z,99065.44
2022-09-10T20:15:07.522Z,99070.94
2022-09-10T20:17:36.609Z,99086.22
2022-09-10T20:20:05.969Z,99088.63
2022-09-10T20:22:38.668Z,99086.41
2022-09-10T20:25:08.216Z,99108.16
2022-09-10T20:27:36.990Z,99088.63
2022-09-10T20:30:06.043Z,99086.66
2022-09-10T20:32:34.429Z,99087.94
2022-09-10T20:35:03.744Z,99100.94
2022-09-10T20:37:31.297Z,99089.69
2022-09-10T20:39:59.259Z,99082.81
2022-09-10T20:42:27.934Z,99082.63
2022-09-10T20:44:55.670Z,99087.59
2022-09-10T20:47:30.891Z,99099.44
2022-09-10T20:49:59.102Z,99107.75
2022-09-10T20:52:27.453Z,99112.19
2022-09-10T20:54:55.600Z,99108.53
2022-09-10T20:57:28.535Z,99118.66
2022-09-10T20:59:56.159Z,99126.44
2022-09-10T21:02:26.206Z,99118.66
2022-09-10T21:04:56.154Z,99117.34
2022-09-10T21:07:23.773Z,99116.72
2022-09-10T21:09:51.346Z,99118.66
2022-09-10T21:12:19.096Z,99124.72
2022-09-10T21:14:47.031Z,99122.00
2022-09-10T21:17:15.126Z,99134.06
2022-09-10T21:19:43.301Z,99130.13
2022-09-10T21:22:10.853Z,99123.81
2022-09-10T21:24:39.749Z,99126.50
2022-09-10T21:27:07.214Z,99128.00
2022-09-10T21:29:34.715Z,99128.53
2022-09-10T21:32:03.392Z,99133.19
2022-09-10T21:34:34.960Z,99134.72
2022-09-10T21:37:02.534Z,99131.94
2022-09-10T21:39:29.943Z,99136.44
2022-09-10T21:41:57.490Z,99138.72
2022-09-10T21:44:25.193Z,99133.84
2022-09-10T21:46:53.648Z,99143.81
2022-09-10T21:49:21.354Z,99126.63
2022-09-10T21:51:48.985Z,99124.16
2022-09-10T21:54:22.198Z,99128.84
2022-09-10T21:56:51.925Z,99129.44
2022-09-10T21:59:21.302Z,99125.59
2022-09-10T22:01:49.596Z,99122.13
2022-09-10T22:04:22.806Z,99124.34
2022-09-10T22:06:51.940Z,99125.75
2022-09-10T22:09:20.679Z,99125.84
2022-09-10T22:11:54.263Z,99132.00
2022-09-10T22:14:24.939Z,99127.75
2022-09-10T22:16:53.698Z,99136.28
2022-09-10T22:19:24.822Z,99137.94
2022-09-10T22:21:56.902Z,99143.72
2022-09-10T22:24:24.508Z,99142.50
2022-09-10T22:26:51.910Z,99143.28
2022-09-10T22:29:21.148Z,99147.50
2022-09-10T22:31:49.730Z,99144.81
2022-09-10T22:34:18.620Z,99146.25
2022-09-10T22:36:48.475Z,99148.63
2022-09-10T22:39:21.401Z,99144.16
2022-09-10T22:41:51.262Z,99142.25
2022-09-10T22:44:20.103Z,99142.66
2022-09-10T22:46:48.263Z,99137.50
2022-09-10T22:49:16.692Z,99138.59
2022-09-10T22:51:44.654Z,99140.97
2022-09-10T22:54:12.296Z,99136.97
2022-09-10T22:56:42.018Z,99139.72
2022-09-10T22:59:15.912Z,99135.75
2022-09-10T23:01:47.462Z,99136.59
2022-09-10T23:04:17.926Z,99140.41
2022-09-10T23:06:45.493Z,99141.97
2022-09-10T23:09:16.222Z,99142.09
2022-09-10T23:11:45.137Z,99131.63
2022-09-10T23:14:19.079Z,99137.31
2022-09-10T23:16:49.805Z,99131.66
2022-09-10T23:19:23.996Z,99130.97
2022-09-10T23:21:54.607Z,99128.34
2022-09-10T23:24:26.550Z,99129.44
2022-09-10T23:26:54.780Z,99124.97
2022-09-10T23:29:23.378Z,99127.16
2022-09-10T23:31:54.043Z,99135.53
2022-09-10T23:34:22.395Z,99143.44
2022-09-10T23:36:51.642Z,99147.28
2022-09-10T23:39:24.623Z,99152.63
2022-09-10T23:41:55.196Z,99160.28
2022-09-10T23:44:26.645Z,99158.47
2022-09-10T23:46:55.569Z,99156.47
2022-09-10T23:49:24.125Z,99161.16
2022-09-10T23:51:52.211Z,99144.28
2022-09-10T23:54:19.696Z,99146.97
2022-09-10T23:56:47.215Z,99161.16
2022-09-10T23:59:15.447Z,99153.91
